sensor_id;sensor_type;location;lat;lon;timestamp;P1;durP1;ratioP1;P2;durP2;ratioP2
18647;SDS011;9453;50.294;18.644;2023-11-21T05:01:53;9.33;;;4.23;;
18647;SDS011;9453;50.294;18.644;2023-11-21T05:04:20;8.47;;;4.33;;
18647;SDS011;9453;50.294;18.644;2023-11-21T05:06:47;8.13;;;4.20;;
18647;SDS011;9453;50.294;18.644;2023-11-21T05:09:14;9.50;;;4.67;;
18647;SDS011;9453;50.294;18.644;2023-11-21T05:11:41;8.33;;;4.57;;
18647;SDS011;9453;50.294;18.644;2023-11-21T05:14:08;8.77;;;4.20;;
18647;SDS011;9453;50.294;18.644;2023-11-21T05:16:35;10.20;;;4.20;;
18647;SDS011;9453;50.294;18.644;2023-11-21T05:19:04;6.57;;;3.60;;
18647;SDS011;9453;50.294;18.644;2023-11-21T05:21:31;4.90;;;3.00;;
18647;SDS011;9453;50.294;18.644;2023-11-21T05:23:58;6.63;;;3.63;;
18647;SDS011;9453;50.294;18.644;2023-11-21T05:26:25;10.53;;;5.37;;
18647;SDS011;9453;50.294;18.644;2023-11-21T05:28:52;9.77;;;4.57;;
18647;SDS011;9453;50.294;18.644;2023-11-21T05:31:22;8.77;;;4.70;;
18647;SDS011;9453;50.294;18.644;2023-11-21T05:33:49;7.57;;;4.80;;
18647;SDS011;9453;50.294;18.644;2023-11-21T05:36:17;11.53;;;5.33;;
18647;SDS011;9453;50.294;18.644;2023-11-21T05:38:44;12.47;;;5.97;;
18647;SDS011;9453;50.294;18.644;2023-11-21T05:41:12;14.70;;;6.00;;
18647;SDS011;9453;50.294;18.644;2023-11-21T05:43:39;10.90;;;5.40;;
18647;SDS011;9453;50.294;18.644;2023-11-21T05:46:06;11.60;;;5.80;;
18647;SDS011;9453;50.294;18.644;2023-11-21T05:48:34;14.07;;;5.57;;
18647;SDS011;9453;50.294;18.644;2023-11-21T05:51:02;17.83;;;5.90;;
18647;SDS011;9453;50.294;18.644;2023-11-21T05:53:31;16.30;;;6.73;;
18647;SDS011;9453;50.294;18.644;2023-11-21T05:55:58;12.93;;;6.13;;
18647;SDS011;9453;50.294;18.644;2023-11-21T05:58:26;13.77;;;7.10;;
18647;SDS011;9453;50.294;18.644;2023-11-21T06:00:52;19.23;;;7.93;;
18647;SDS011;9453;50.294;18.644;2023-11-21T06:03:20;17.63;;;8.00;;
18647;SDS011;9453;50.294;18.644;2023-11-21T06:05:48;24.20;;;9.73;;
18647;SDS011;9453;50.294;18.644;2023-11-21T06:08:15;20.70;;;9.90;;
18647;SDS011;9453;50.294;18.644;2023-11-21T06:10:44;18.17;;;8.73;;
18647;SDS011;9453;50.294;18.644;2023-11-21T06:13:14;25.23;;;10.10;;
18647;SDS011;9453;50.294;18.644;2023-11-21T06:15:44;17.23;;;9.07;;
18647;SDS011;9453;50.294;18.644;2023-11-21T06:18:10;14.67;;;8.40;;
18647;SDS011;9453;50.294;18.644;2023-11-21T06:20:38;15.40;;;8.47;;
18647;SDS011;9453;50.294;18.644;2023-11-21T06:23:04;15.93;;;8.60;;
18647;SDS011;9453;50.294;18.644;2023-11-21T06:25:32;13.83;;;7.03;;
18647;SDS011;9453;50.294;18.644;2023-11-21T06:28:02;14.13;;;6.60;;
18647;SDS011;9453;50.294;18.644;2023-11-21T06:30:30;9.70;;;5.40;;
18647;SDS011;9453;50.294;18.644;2023-11-21T06:32:57;12.03;;;6.30;;
18647;SDS011;9453;50.294;18.644;2023-11-21T06:35:26;12.93;;;6.77;;
18647;SDS011;9453;50.294;18.644;2023-11-21T06:37:55;14.03;;;6.73;;
18647;SDS011;9453;50.294;18.644;2023-11-21T06:40:22;10.90;;;6.43;;
18647;SDS011;9453;50.294;18.644;2023-11-21T06:42:49;16.13;;;6.90;;
18647;SDS011;9453;50.294;18.644;2023-11-21T06:45:19;10.07;;;5.40;;
18647;SDS011;9453;50.294;18.644;2023-11-21T06:47:46;10.70;;;5.43;;
18647;SDS011;9453;50.294;18.644;2023-11-21T06:50:13;11.30;;;5.20;;
18647;SDS011;9453;50.294;18.644;2023-11-21T06:52:41;10.07;;;4.97;;
18647;SDS011;9453;50.294;18.644;2023-11-21T06:55:08;9.33;;;5.20;;
18647;SDS011;9453;50.294;18.644;2023-11-21T06:57:35;12.77;;;5.13;;
18647;SDS011;9453;50.294;18.644;2023-11-21T07:00:03;12.47;;;5.50;;
18647;SDS011;9453;50.294;18.644;2023-11-21T07:02:35;10.53;;;5.37;;
18647;SDS011;9453;50.294;18.644;2023-11-21T07:05:02;12.70;;;5.50;;
18647;SDS011;9453;50.294;18.644;2023-11-21T07:07:30;10.90;;;5.63;;
18647;SDS011;9453;50.294;18.644;2023-11-21T07:10:00;16.57;;;6.10;;
18647;SDS011;9453;50.294;18.644;2023-11-21T07:12:28;10.83;;;5.37;;
18647;SDS011;9453;50.294;18.644;2023-11-21T07:14:56;9.47;;;5.00;;
18647;SDS011;9453;50.294;18.644;2023-11-21T07:17:23;10.47;;;5.60;;
18647;SDS011;9453;50.294;18.644;2023-11-21T07:19:51;11.17;;;6.93;;
18647;SDS011;9453;50.294;18.644;2023-11-21T07:22:18;10.13;;;5.13;;
18647;SDS011;9453;50.294;18.644;2023-11-21T07:24:47;11.67;;;5.67;;
18647;SDS011;9453;50.294;18.644;2023-11-21T07:27:15;12.70;;;5.23;;
18647;SDS011;9453;50.294;18.644;2023-11-21T07:29:43;8.90;;;4.57;;
18647;SDS011;9453;50.294;18.644;2023-11-21T07:32:10;12.17;;;6.03;;
18647;SDS011;9453;50.294;18.644;2023-11-21T07:34:38;13.83;;;6.87;;
18647;SDS011;9453;50.294;18.644;2023-11-21T07:37:06;13.80;;;6.87;;
18647;SDS011;9453;50.294;18.644;2023-11-21T07:39:34;14.87;;;6.10;;
18647;SDS011;9453;50.294;18.644;2023-11-21T07:42:01;11.73;;;6.13;;
18647;SDS011;9453;50.294;18.644;2023-11-21T07:44:28;10.93;;;4.73;;
18647;SDS011;9453;50.294;18.644;2023-11-21T07:46:55;12.73;;;5.33;;
18647;SDS011;9453;50.294;18.644;2023-11-21T07:49:23;13.67;;;5.20;;
18647;SDS011;9453;50.294;18.644;2023-11-21T07:51:51;14.30;;;6.07;;
18647;SDS011;9453;50.294;18.644;2023-11-21T07:54:20;11.17;;;5.17;;
18647;SDS011;9453;50.294;18.644;2023-11-21T07:56:47;10.33;;;5.10;;
18647;SDS011;9453;50.294;18.644;2023-11-21T07:59:14;10.87;;;5.10;;
18647;SDS011;9453;50.294;18.644;2023-11-21T08:01:42;11.07;;;4.90;;
18647;SDS011;9453;50.294;18.644;2023-11-21T08:04:10;12.30;;;5.53;;
18647;SDS011;9453;50.294;18.644;2023-11-21T08:06:38;10.40;;;4.23;;
18647;SDS011;9453;50.294;18.644;2023-11-21T08:09:06;9.73;;;4.77;;
18647;SDS011;9453;50.294;18.644;2023-11-21T08:11:35;10.50;;;5.03;;
18647;SDS011;9453;50.294;18.644;2023-11-21T08:14:04;9.13;;;4.70;;
18647;SDS011;9453;50.294;18.644;2023-11-21T08:16:31;11.57;;;4.87;;
18647;SDS011;9453;50.294;18.644;2023-11-21T08:18:58;14.53;;;5.13;;
18647;SDS011;9453;50.294;18.644;2023-11-21T08:21:25;12.97;;;4.70;;
18647;SDS011;9453;50.294;18.644;2023-11-21T08:23:54;11.40;;;5.10;;
18647;SDS011;9453;50.294;18.644;2023-11-21T08:26:21;11.50;;;4.10;;
18647;SDS011;9453;50.294;18.644;2023-11-21T08:28:50;10.67;;;4.53;;
18647;SDS011;9453;50.294;18.644;2023-11-21T08:31:23;10.00;;;4.50;;
18647;SDS011;9453;50.294;18.644;2023-11-21T08:33:51;10.90;;;3.90;;
18647;SDS011;9453;50.294;18.644;2023-11-21T08:36:20;10.73;;;4.87;;
18647;SDS011;9453;50.294;18.644;2023-11-21T08:38:48;14.03;;;5.47;;
18647;SDS011;9453;50.294;18.644;2023-11-21T08:41:17;8.00;;;4.13;;
18647;SDS011;9453;50.294;18.644;2023-11-21T08:43:47;12.60;;;4.57;;
18647;SDS011;9453;50.294;18.644;2023-11-21T08:46:16;8.93;;;4.20;;
18647;SDS011;9453;50.294;18.644;2023-11-21T08:48:43;9.33;;;4.00;;
18647;SDS011;9453;50.294;18.644;2023-11-21T08:51:10;6.63;;;3.00;;
18647;SDS011;9453;50.294;18.644;2023-11-21T08:53:38;7.17;;;3.80;;
18647;SDS011;9453;50.294;18.644;2023-11-21T08:56:05;10.10;;;4.67;;
18647;SDS011;9453;50.294;18.644;2023-11-21T08:58:34;7.80;;;4.00;;
18647;SDS011;9453;50.294;18.644;2023-11-21T09:01:02;11.97;;;3.70;;
18647;SDS011;9453;50.294;18.644;2023-11-21T09:03:30;7.63;;;3.50;;
18647;SDS011;9453;50.294;18.644;2023-11-21T09:05:59;8.47;;;3.40;;
18647;SDS011;9453;50.294;18.644;2023-11-21T09:08:26;9.03;;;3.80;;
18647;SDS011;9453;50.294;18.644;2023-11-21T09:10:54;9.40;;;3.77;;
18647;SDS011;9453;50.294;18.644;2023-11-21T09:13:22;9.23;;;3.77;;
18647;SDS011;9453;50.294;18.644;2023-11-21T09:15:50;7.30;;;3.43;;
18647;SDS011;9453;50.294;18.644;2023-11-21T09:18:17;6.83;;;3.50;;
18647;SDS011;9453;50.294;18.644;2023-11-21T09:20:45;5.97;;;2.67;;
18647;SDS011;9453;50.294;18.644;2023-11-21T09:23:12;6.67;;;2.80;;
18647;SDS011;9453;50.294;18.644;2023-11-21T09:25:39;6.73;;;2.67;;
18647;SDS011;9453;50.294;18.644;2023-11-21T09:28:06;9.33;;;3.13;;
18647;SDS011;9453;50.294;18.644;2023-11-21T09:30:33;6.57;;;2.90;;
18647;SDS011;9453;50.294;18.644;2023-11-21T09:33:01;8.17;;;3.90;;
18647;SDS011;9453;50.294;18.644;2023-11-21T09:35:28;8.03;;;4.13;;
18647;SDS011;9453;50.294;18.644;2023-11-21T09:37:57;6.33;;;3.27;;
18647;SDS011;9453;50.294;18.644;2023-11-21T09:40:29;6.33;;;3.10;;
18647;SDS011;9453;50.294;18.644;2023-11-21T09:43:00;7.67;;;3.37;;
18647;SDS011;9453;50.294;18.644;2023-11-21T09:45:34;5.37;;;2.87;;
18647;SDS011;9453;50.294;18.644;2023-11-21T09:48:02;10.63;;;3.50;;
18647;SDS011;9453;50.294;18.644;2023-11-21T09:50:30;9.47;;;3.33;;
18647;SDS011;9453;50.294;18.644;2023-11-21T09:53:03;7.47;;;2.63;;
18647;SDS011;9453;50.294;18.644;2023-11-21T09:55:39;4.83;;;2.50;;
18647;SDS011;9453;50.294;18.644;2023-11-21T09:58:09;5.60;;;2.53;;
18647;SDS011;9453;50.294;18.644;2023-11-21T10:00:39;8.53;;;3.63;;
18647;SDS011;9453;50.294;18.644;2023-11-21T10:03:07;10.63;;;2.67;;
18647;SDS011;9453;50.294;18.644;2023-11-21T10:05:34;6.93;;;2.83;;
18647;SDS011;9453;50.294;18.644;2023-11-21T10:08:03;6.70;;;1.90;;
18647;SDS011;9453;50.294;18.644;2023-11-21T10:10:33;6.10;;;2.73;;
18647;SDS011;9453;50.294;18.644;2023-11-21T10:13:01;3.57;;;1.70;;
18647;SDS011;9453;50.294;18.644;2023-11-21T10:15:31;7.60;;;3.20;;
18647;SDS011;9453;50.294;18.644;2023-11-21T10:18:01;3.33;;;1.43;;
18647;SDS011;9453;50.294;18.644;2023-11-21T10:20:31;5.50;;;1.23;;
18647;SDS011;9453;50.294;18.644;2023-11-21T10:22:59;3.80;;;1.57;;
18647;SDS011;9453;50.294;18.644;2023-11-21T10:25:30;1.40;;;0.83;;
18647;SDS011;9453;50.294;18.644;2023-11-21T10:27:57;2.53;;;1.10;;
18647;SDS011;9453;50.294;18.644;2023-11-21T10:30:31;1.97;;;1.10;;
18647;SDS011;9453;50.294;18.644;2023-11-21T10:33:02;3.60;;;1.40;;
18647;SDS011;9453;50.294;18.644;2023-11-21T10:35:38;2.07;;;0.90;;
18647;SDS011;9453;50.294;18.644;2023-11-21T10:38:16;2.13;;;1.00;;
18647;SDS011;9453;50.294;18.644;2023-11-21T10:40:44;2.37;;;1.10;;
18647;SDS011;9453;50.294;18.644;2023-11-21T10:43:13;4.97;;;1.37;;
18647;SDS011;9453;50.294;18.644;2023-11-21T10:45:41;1.17;;;0.70;;
18647;SDS011;9453;50.294;18.644;2023-11-21T10:48:09;1.53;;;0.80;;
18647;SDS011;9453;50.294;18.644;2023-11-21T10:50:40;3.80;;;1.10;;
18647;SDS011;9453;50.294;18.644;2023-11-21T10:53:07;1.27;;;0.70;;
18647;SDS011;9453;50.294;18.644;2023-11-21T10:55:34;2.70;;;0.70;;
18647;SDS011;9453;50.294;18.644;2023-11-21T10:58:03;3.97;;;0.90;;
18647;SDS011;9453;50.294;18.644;2023-11-21T11:00:31;2.30;;;0.80;;
18647;SDS011;9453;50.294;18.644;2023-11-21T11:02:59;2.40;;;0.93;;
18647;SDS011;9453;50.294;18.644;2023-11-21T11:05:27;1.90;;;0.73;;
18647;SDS011;9453;50.294;18.644;2023-11-21T11:07:58;2.63;;;0.80;;
18647;SDS011;9453;50.294;18.644;2023-11-21T11:10:26;2.13;;;0.97;;
18647;SDS011;9453;50.294;18.644;2023-11-21T11:12:54;2.87;;;1.03;;
18647;SDS011;9453;50.294;18.644;2023-11-21T11:15:23;3.40;;;1.17;;
18647;SDS011;9453;50.294;18.644;2023-11-21T11:17:52;3.20;;;1.13;;
18647;SDS011;9453;50.294;18.644;2023-11-21T11:20:22;4.67;;;1.13;;
18647;SDS011;9453;50.294;18.644;2023-11-21T11:22:56;3.03;;;0.97;;
18647;SDS011;9453;50.294;18.644;2023-11-21T11:28:27;2.57;;;1.10;;
18647;SDS011;9453;50.294;18.644;2023-11-21T11:31:04;3.60;;;0.90;;
18647;SDS011;9453;50.294;18.644;2023-11-21T11:33:38;6.20;;;1.77;;
18647;SDS011;9453;50.294;18.644;2023-11-21T11:36:10;5.83;;;2.40;;
18647;SDS011;9453;50.294;18.644;2023-11-21T11:38:45;2.33;;;1.13;;
18647;SDS011;9453;50.294;18.644;2023-11-21T11:41:15;2.20;;;1.00;;
18647;SDS011;9453;50.294;18.644;2023-11-21T11:43:51;3.57;;;0.97;;
18647;SDS011;9453;50.294;18.644;2023-11-21T11:46:20;3.63;;;1.30;;
18647;SDS011;9453;50.294;18.644;2023-11-21T11:48:47;4.47;;;1.47;;
18647;SDS011;9453;50.294;18.644;2023-11-21T11:51:15;4.07;;;1.30;;
18647;SDS011;9453;50.294;18.644;2023-11-21T11:53:44;3.53;;;1.43;;
18647;SDS011;9453;50.294;18.644;2023-11-21T11:56:19;4.17;;;1.20;;
18647;SDS011;9453;50.294;18.644;2023-11-21T11:58:51;2.80;;;1.20;;
18647;SDS011;9453;50.294;18.644;2023-11-21T12:01:21;2.37;;;1.03;;
18647;SDS011;9453;50.294;18.644;2023-11-21T12:07:00;4.53;;;1.40;;
18647;SDS011;9453;50.294;18.644;2023-11-21T12:09:28;1.50;;;1.07;;
18647;SDS011;9453;50.294;18.644;2023-11-21T12:11:57;2.40;;;1.00;;
18647;SDS011;9453;50.294;18.644;2023-11-21T12:14:25;2.97;;;0.90;;
18647;SDS011;9453;50.294;18.644;2023-11-21T12:16:54;3.10;;;1.00;;
18647;SDS011;9453;50.294;18.644;2023-11-21T12:19:21;2.50;;;0.97;;
18647;SDS011;9453;50.294;18.644;2023-11-21T12:21:49;1.80;;;1.00;;
18647;SDS011;9453;50.294;18.644;2023-11-21T12:24:17;2.67;;;1.23;;
18647;SDS011;9453;50.294;18.644;2023-11-21T12:26:44;2.57;;;0.97;;
18647;SDS011;9453;50.294;18.644;2023-11-21T12:29:11;2.73;;;0.90;;
18647;SDS011;9453;50.294;18.644;2023-11-21T12:31:38;1.30;;;1.00;;
18647;SDS011;9453;50.294;18.644;2023-11-21T12:34:07;2.20;;;1.37;;
18647;SDS011;9453;50.294;18.644;2023-11-21T12:36:36;2.60;;;1.10;;
18647;SDS011;9453;50.294;18.644;2023-11-21T12:39:04;3.93;;;0.90;;
18647;SDS011;9453;50.294;18.644;2023-11-21T12:41:31;1.57;;;1.00;;
18647;SDS011;9453;50.294;18.644;2023-11-21T12:43:58;1.63;;;0.90;;
18647;SDS011;9453;50.294;18.644;2023-11-21T12:46:25;1.83;;;0.80;;
18647;SDS011;9453;50.294;18.644;2023-11-21T12:48:55;2.67;;;1.00;;
18647;SDS011;9453;50.294;18.644;2023-11-21T12:51:24;1.90;;;1.10;;
18647;SDS011;9453;50.294;18.644;2023-11-21T12:53:51;2.17;;;1.20;;
18647;SDS011;9453;50.294;18.644;2023-11-21T12:56:19;2.93;;;1.47;;
18647;SDS011;9453;50.294;18.644;2023-11-21T12:58:49;3.87;;;1.30;;
18647;SDS011;9453;50.294;18.644;2023-11-21T13:01:17;2.77;;;1.30;;
18647;SDS011;9453;50.294;18.644;2023-11-21T13:03:47;2.63;;;1.33;;
18647;SDS011;9453;50.294;18.644;2023-11-21T13:06:16;3.13;;;1.40;;
18647;SDS011;9453;50.294;18.644;2023-11-21T13:08:45;3.27;;;1.20;;
18647;SDS011;9453;50.294;18.644;2023-11-21T13:11:12;3.30;;;1.63;;
18647;SDS011;9453;50.294;18.644;2023-11-21T13:13:40;2.60;;;1.30;;
18647;SDS011;9453;50.294;18.644;2023-11-21T13:16:09;3.93;;;1.20;;
18647;SDS011;9453;50.294;18.644;2023-11-21T13:18:36;3.70;;;1.40;;
18647;SDS011;9453;50.294;18.644;2023-11-21T13:21:05;4.60;;;1.57;;
18647;SDS011;9453;50.294;18.644;2023-11-21T13:23:36;6.77;;;1.80;;
18647;SDS011;9453;50.294;18.644;2023-11-21T13:26:05;6.40;;;1.87;;
18647;SDS011;9453;50.294;18.644;2023-11-21T13:28:33;8.67;;;2.27;;
18647;SDS011;9453;50.294;18.644;2023-11-21T13:31:02;4.63;;;1.63;;
18647;SDS011;9453;50.294;18.644;2023-11-21T13:33:45;8.17;;;3.20;;
18647;SDS011;9453;50.294;18.644;2023-11-21T13:36:16;7.73;;;2.73;;
18647;SDS011;9453;50.294;18.644;2023-11-21T13:38:47;8.80;;;4.20;;
18647;SDS011;9453;50.294;18.644;2023-11-21T13:41:15;10.57;;;3.87;;
18647;SDS011;9453;50.294;18.644;2023-11-21T13:43:43;8.57;;;3.37;;
18647;SDS011;9453;50.294;18.644;2023-11-21T13:46:24;8.17;;;2.97;;
18647;SDS011;9453;50.294;18.644;2023-11-21T13:48:51;9.57;;;4.90;;
18647;SDS011;9453;50.294;18.644;2023-11-21T13:51:21;10.70;;;5.17;;
18647;SDS011;9453;50.294;18.644;2023-11-21T13:53:56;14.87;;;5.50;;
18647;SDS011;9453;50.294;18.644;2023-11-21T13:56:25;18.00;;;6.03;;
18647;SDS011;9453;50.294;18.644;2023-11-21T13:58:54;11.53;;;4.77;;
18647;SDS011;9453;50.294;18.644;2023-11-21T14:01:21;13.20;;;6.03;;
18647;SDS011;9453;50.294;18.644;2023-11-21T14:04:10;10.33;;;5.40;;
18647;SDS011;9453;50.294;18.644;2023-11-21T14:06:45;13.17;;;5.57;;
18647;SDS011;9453;50.294;18.644;2023-11-21T14:09:14;9.20;;;4.77;;
18647;SDS011;9453;50.294;18.644;2023-11-21T14:11:49;7.20;;;4.03;;
18647;SDS011;9453;50.294;18.644;2023-11-21T14:14:18;8.67;;;4.77;;
18647;SDS011;9453;50.294;18.644;2023-11-21T14:16:45;10.90;;;5.50;;
18647;SDS011;9453;50.294;18.644;2023-11-21T14:19:12;9.57;;;5.60;;
18647;SDS011;9453;50.294;18.644;2023-11-21T14:21:42;10.27;;;5.53;;
18647;SDS011;9453;50.294;18.644;2023-11-21T14:24:09;10.80;;;5.87;;
18647;SDS011;9453;50.294;18.644;2023-11-21T14:26:38;9.13;;;5.30;;
18647;SDS011;9453;50.294;18.644;2023-11-21T14:29:12;10.73;;;5.40;;
18647;SDS011;9453;50.294;18.644;2023-11-21T14:31:41;10.17;;;6.27;;
18647;SDS011;9453;50.294;18.644;2023-11-21T14:34:08;10.07;;;5.33;;
18647;SDS011;9453;50.294;18.644;2023-11-21T14:36:37;7.97;;;5.17;;
18647;SDS011;9453;50.294;18.644;2023-11-21T14:39:04;6.23;;;3.70;;
18647;SDS011;9453;50.294;18.644;2023-11-21T14:41:36;10.07;;;4.20;;
18647;SDS011;9453;50.294;18.644;2023-11-21T14:44:04;9.40;;;4.30;;
18647;SDS011;9453;50.294;18.644;2023-11-21T14:46:38;10.67;;;4.50;;
18647;SDS011;9453;50.294;18.644;2023-11-21T14:49:09;8.07;;;4.60;;
18647;SDS011;9453;50.294;18.644;2023-11-21T14:51:44;11.77;;;5.37;;
18647;SDS011;9453;50.294;18.644;2023-11-21T14:54:25;9.87;;;5.43;;
18647;SDS011;9453;50.294;18.644;2023-11-21T14:57:05;15.83;;;6.73;;
18647;SDS011;9453;50.294;18.644;2023-11-21T14:59:36;14.47;;;7.97;;
18647;SDS011;9453;50.294;18.644;2023-11-21T15:02:04;15.47;;;8.33;;
18647;SDS011;9453;50.294;18.644;2023-11-21T15:04:41;15.13;;;8.37;;
18647;SDS011;9453;50.294;18.644;2023-11-21T15:07:09;15.30;;;7.83;;
18647;SDS011;9453;50.294;18.644;2023-11-21T15:09:36;19.33;;;8.97;;
18647;SDS011;9453;50.294;18.644;2023-11-21T15:12:07;16.03;;;8.73;;
18647;SDS011;9453;50.294;18.644;2023-11-21T15:14:43;15.60;;;8.70;;
18647;SDS011;9453;50.294;18.644;2023-11-21T15:17:14;17.83;;;8.93;;
18647;SDS011;9453;50.294;18.644;2023-11-21T15:19:47;20.33;;;9.90;;
18647;SDS011;9453;50.294;18.644;2023-11-21T15:22:15;18.80;;;9.17;;
18647;SDS011;9453;50.294;18.644;2023-11-21T15:24:42;19.43;;;8.73;;
18647;SDS011;9453;50.294;18.644;2023-11-21T15:27:11;17.67;;;8.60;;
18647;SDS011;9453;50.294;18.644;2023-11-21T15:29:38;16.17;;;8.17;;
18647;SDS011;9453;50.294;18.644;2023-11-21T15:32:06;19.80;;;9.23;;
18647;SDS011;9453;50.294;18.644;2023-11-21T15:34:35;15.13;;;8.43;;
18647;SDS011;9453;50.294;18.644;2023-11-21T15:37:03;19.60;;;8.03;;
18647;SDS011;9453;50.294;18.644;2023-11-21T15:39:35;17.87;;;8.90;;
18647;SDS011;9453;50.294;18.644;2023-11-21T15:42:04;18.27;;;9.17;;
18647;SDS011;9453;50.294;18.644;2023-11-21T15:44:32;15.63;;;8.23;;
18647;SDS011;9453;50.294;18.644;2023-11-21T15:46:59;19.87;;;9.27;;
18647;SDS011;9453;50.294;18.644;2023-11-21T15:49:29;19.90;;;8.13;;
18647;SDS011;9453;50.294;18.644;2023-11-21T15:52:01;14.50;;;6.80;;
18647;SDS011;9453;50.294;18.644;2023-11-21T15:54:28;16.57;;;8.10;;
18647;SDS011;9453;50.294;18.644;2023-11-21T15:56:56;15.53;;;7.50;;
18647;SDS011;9453;50.294;18.644;2023-11-21T15:59:24;15.57;;;8.17;;
18647;SDS011;9453;50.294;18.644;2023-11-21T16:01:54;19.60;;;8.43;;
18647;SDS011;9453;50.294;18.644;2023-11-21T16:04:22;21.17;;;9.40;;
18647;SDS011;9453;50.294;18.644;2023-11-21T16:06:51;20.63;;;9.60;;
18647;SDS011;9453;50.294;18.644;2023-11-21T16:09:20;22.13;;;10.13;;
18647;SDS011;9453;50.294;18.644;2023-11-21T16:11:48;27.50;;;11.30;;
18647;SDS011;9453;50.294;18.644;2023-11-21T16:14:18;24.53;;;9.80;;
18647;SDS011;9453;50.294;18.644;2023-11-21T16:16:50;17.30;;;9.10;;
18647;SDS011;9453;50.294;18.644;2023-11-21T16:19:17;21.77;;;9.73;;
18647;SDS011;9453;50.294;18.644;2023-11-21T16:21:44;21.43;;;9.33;;
18647;SDS011;9453;50.294;18.644;2023-11-21T16:24:12;23.70;;;10.53;;
18647;SDS011;9453;50.294;18.644;2023-11-21T16:26:42;22.87;;;10.60;;
18647;SDS011;9453;50.294;18.644;2023-11-21T16:29:10;23.27;;;11.60;;
18647;SDS011;9453;50.294;18.644;2023-11-21T16:31:37;22.57;;;10.47;;
18647;SDS011;9453;50.294;18.644;2023-11-21T16:34:11;25.40;;;11.03;;
18647;SDS011;9453;50.294;18.644;2023-11-21T16:36:39;24.37;;;10.70;;
18647;SDS011;9453;50.294;18.644;2023-11-21T16:39:07;22.53;;;10.70;;
18647;SDS011;9453;50.294;18.644;2023-11-21T16:41:35;26.50;;;11.17;;
18647;SDS011;9453;50.294;18.644;2023-11-21T16:44:03;25.70;;;11.70;;
18647;SDS011;9453;50.294;18.644;2023-11-21T16:46:32;30.80;;;13.13;;
18647;SDS011;9453;50.294;18.644;2023-11-21T16:49:00;31.97;;;12.70;;
18647;SDS011;9453;50.294;18.644;2023-11-21T16:51:32;31.73;;;13.20;;
18647;SDS011;9453;50.294;18.644;2023-11-21T16:54:00;32.30;;;14.73;;
18647;SDS011;9453;50.294;18.644;2023-11-21T16:56:27;30.53;;;13.50;;
18647;SDS011;9453;50.294;18.644;2023-11-21T16:58:54;29.87;;;12.40;;
18647;SDS011;9453;50.294;18.644;2023-11-21T17:01:22;30.17;;;13.23;;
18647;SDS011;9453;50.294;18.644;2023-11-21T17:03:51;30.73;;;12.33;;
18647;SDS011;9453;50.294;18.644;2023-11-21T17:06:18;28.30;;;11.13;;
18647;SDS011;9453;50.294;18.644;2023-11-21T17:08:45;29.17;;;12.00;;
18647;SDS011;9453;50.294;18.644;2023-11-21T17:11:11;31.97;;;12.53;;
18647;SDS011;9453;50.294;18.644;2023-11-21T17:13:39;30.63;;;12.57;;
18647;SDS011;9453;50.294;18.644;2023-11-21T17:16:06;29.63;;;12.77;;
18647;SDS011;9453;50.294;18.644;2023-11-21T17:18:35;28.17;;;12.47;;
18647;SDS011;9453;50.294;18.644;2023-11-21T17:21:02;26.90;;;11.10;;
18647;SDS011;9453;50.294;18.644;2023-11-21T17:23:30;22.00;;;9.43;;
18647;SDS011;9453;50.294;18.644;2023-11-21T17:25:57;23.20;;;10.63;;
18647;SDS011;9453;50.294;18.644;2023-11-21T17:28:24;22.10;;;10.30;;
18647;SDS011;9453;50.294;18.644;2023-11-21T17:30:51;17.83;;;9.00;;
18647;SDS011;9453;50.294;18.644;2023-11-21T17:33:19;21.57;;;9.97;;
18647;SDS011;9453;50.294;18.644;2023-11-21T17:35:51;21.07;;;9.67;;
18647;SDS011;9453;50.294;18.644;2023-11-21T17:38:20;22.83;;;9.73;;
18647;SDS011;9453;50.294;18.644;2023-11-21T17:40:48;29.70;;;13.47;;
18647;SDS011;9453;50.294;18.644;2023-11-21T17:43:17;27.67;;;13.43;;
18647;SDS011;9453;50.294;18.644;2023-11-21T17:45:44;26.83;;;11.77;;
18647;SDS011;9453;50.294;18.644;2023-11-21T17:48:12;26.97;;;13.90;;
18647;SDS011;9453;50.294;18.644;2023-11-21T17:50:39;18.30;;;9.67;;
18647;SDS011;9453;50.294;18.644;2023-11-21T17:53:08;18.50;;;8.30;;
18647;SDS011;9453;50.294;18.644;2023-11-21T17:55:35;16.00;;;7.57;;
18647;SDS011;9453;50.294;18.644;2023-11-21T17:58:02;16.87;;;8.13;;
18647;SDS011;9453;50.294;18.644;2023-11-21T18:00:29;14.70;;;7.43;;
18647;SDS011;9453;50.294;18.644;2023-11-21T18:02:56;13.13;;;6.43;;
18647;SDS011;9453;50.294;18.644;2023-11-21T18:05:24;15.00;;;6.90;;
18647;SDS011;9453;50.294;18.644;2023-11-21T18:07:51;14.23;;;7.23;;
18647;SDS011;9453;50.294;18.644;2023-11-21T18:10:19;12.37;;;6.20;;
18647;SDS011;9453;50.294;18.644;2023-11-21T18:12:46;11.97;;;6.47;;
18647;SDS011;9453;50.294;18.644;2023-11-21T18:15:13;11.47;;;5.37;;
18647;SDS011;9453;50.294;18.644;2023-11-21T18:17:43;12.33;;;5.80;;
18647;SDS011;9453;50.294;18.644;2023-11-21T18:20:11;12.33;;;5.27;;
18647;SDS011;9453;50.294;18.644;2023-11-21T18:22:38;12.73;;;6.27;;
18647;SDS011;9453;50.294;18.644;2023-11-21T18:25:05;12.60;;;6.33;;
18647;SDS011;9453;50.294;18.644;2023-11-21T18:27:34;11.27;;;5.93;;
18647;SDS011;9453;50.294;18.644;2023-11-21T18:30:01;12.20;;;5.50;;
18647;SDS011;9453;50.294;18.644;2023-11-21T18:32:28;11.50;;;5.43;;
18647;SDS011;9453;50.294;18.644;2023-11-21T18:34:55;13.87;;;5.80;;
18647;SDS011;9453;50.294;18.644;2023-11-21T18:37:22;11.77;;;6.23;;
18647;SDS011;9453;50.294;18.644;2023-11-21T18:39:49;13.27;;;6.27;;
18647;SDS011;9453;50.294;18.644;2023-11-21T18:42:16;15.13;;;6.80;;
18647;SDS011;9453;50.294;18.644;2023-11-21T18:44:45;10.50;;;5.63;;
18647;SDS011;9453;50.294;18.644;2023-11-21T18:47:12;12.20;;;5.57;;
18647;SDS011;9453;50.294;18.644;2023-11-21T18:49:40;10.57;;;5.43;;
18647;SDS011;9453;50.294;18.644;2023-11-21T18:52:08;13.33;;;5.37;;
18647;SDS011;9453;50.294;18.644;2023-11-21T18:54:36;13.83;;;7.10;;
18647;SDS011;9453;50.294;18.644;2023-11-21T18:57:03;17.50;;;8.20;;
18647;SDS011;9453;50.294;18.644;2023-11-21T18:59:33;14.80;;;7.47;;
18647;SDS011;9453;50.294;18.644;2023-11-21T19:02:02;15.47;;;7.77;;
18647;SDS011;9453;50.294;18.644;2023-11-21T19:04:33;14.17;;;6.83;;
18647;SDS011;9453;50.294;18.644;2023-11-21T19:07:00;12.40;;;6.13;;
18647;SDS011;9453;50.294;18.644;2023-11-21T19:09:27;13.80;;;6.87;;
18647;SDS011;9453;50.294;18.644;2023-11-21T19:11:56;14.63;;;7.00;;
18647;SDS011;9453;50.294;18.644;2023-11-21T19:14:23;13.17;;;6.80;;
18647;SDS011;9453;50.294;18.644;2023-11-21T19:16:50;15.43;;;7.37;;
18647;SDS011;9453;50.294;18.644;2023-11-21T19:19:19;17.10;;;7.90;;
18647;SDS011;9453;50.294;18.644;2023-11-21T19:21:46;12.87;;;7.13;;
18647;SDS011;9453;50.294;18.644;2023-11-21T19:24:13;14.50;;;7.30;;
18647;SDS011;9453;50.294;18.644;2023-11-21T19:26:43;15.30;;;7.10;;
18647;SDS011;9453;50.294;18.644;2023-11-21T19:29:10;13.07;;;7.10;;
18647;SDS011;9453;50.294;18.644;2023-11-21T19:31:37;17.20;;;7.10;;
18647;SDS011;9453;50.294;18.644;2023-11-21T19:34:04;13.80;;;6.97;;
18647;SDS011;9453;50.294;18.644;2023-11-21T19:36:33;16.40;;;7.23;;
18647;SDS011;9453;50.294;18.644;2023-11-21T19:39:01;11.20;;;6.23;;
18647;SDS011;9453;50.294;18.644;2023-11-21T19:41:28;14.70;;;6.63;;
18647;SDS011;9453;50.294;18.644;2023-11-21T19:43:55;11.70;;;6.00;;
18647;SDS011;9453;50.294;18.644;2023-11-21T19:46:23;10.50;;;6.17;;
18647;SDS011;9453;50.294;18.644;2023-11-21T19:48:51;13.07;;;6.63;;
18647;SDS011;9453;50.294;18.644;2023-11-21T19:51:18;11.27;;;5.73;;
18647;SDS011;9453;50.294;18.644;2023-11-21T19:53:48;10.53;;;5.27;;